ADDS METAR Data INFO
IDs: Format: Raw Decoded Include TAF

Data at: 0348 UTC 18 Oct 2017

KCNB 180335Z AUTO 20009KT 10SM CLR 17/04 A2986 RMK AO2 T01660042
KCNB 180315Z AUTO 22008KT 180V250 10SM CLR 16/05 A2987 RMK AO2 T01640045
KCNB 180254Z AUTO 23006KT 10SM CLR 16/05 A2986 RMK AO2 T01630045
KCNB 180235Z AUTO 23007KT 180V250 10SM CLR 16/04 A2987 RMK AO2 T01620043
KCNB 180214Z AUTO 24006KT 10SM CLR 16/04 A2987 RMK AO2 T01640042
KCNB 180154Z AUTO 23007KT 190V250 10SM CLR 17/04 A2987 RMK AO2 T01690041
KCNB 180135Z AUTO 22007KT 190V250 10SM CLR 17/04 A2987 RMK AO2 T01700040
KCNB 180114Z AUTO 20005KT 10SM CLR 17/04 A2987 RMK AO2 T01740039
KCNB 180054Z AUTO 22005KT 10SM CLR 18/04 A2988 RMK AO2 T01760040
KCNB 180035Z AUTO 22005KT 10SM CLR 19/04 A2988 RMK AO2 T01870036
KCNB 180014Z AUTO 22005KT 10SM CLR 20/03 A2988 RMK AO2 T01970030
KCNB 172354Z AUTO 22004KT 10SM CLR 21/03 A2987 RMK AO2 T02080030 10255 20208
KCNB 172335Z AUTO 23006KT 10SM CLR 22/03 A2987 RMK AO2 T02150030
KCNB 172314Z AUTO 23004KT 10SM CLR 23/03 A2988 RMK AO2 T02270026
KCNB 172255Z AUTO 24005KT 10SM CLR 24/03 A2988 RMK AO2 T02350027
KCNB 172234Z AUTO 24003KT 10SM CLR 25/02 A2989 RMK AO2 T02450022
KCNB 172215Z AUTO 24006KT 10SM CLR 25/02 A2989 RMK AO2 T02470022
KCNB 172155Z AUTO 23009KT 10SM CLR 25/01 A2990 RMK AO2 T02520008
KCNB 172134Z AUTO 23009KT 10SM CLR 25/01 A2990 RMK AO2 T02530005
KCNB 172115Z AUTO 24010G15KT 10SM CLR 26/01 A2990 RMK AO2 T02550009
KCNB 172055Z AUTO 23010KT 10SM CLR 25/01 A2991 RMK AO2 T02530011
KCNB 172034Z AUTO 24009KT 10SM CLR 25/02 A2992 RMK AO2 T02500018
KCNB 172015Z AUTO 23010G14KT 10SM CLR 25/02 A2993 RMK AO2 T02480021
KCNB 171955Z AUTO 24007G14KT 10SM CLR 25/02 A2994 RMK AO2 T02460022
KCNB 171934Z AUTO 22008KT 10SM CLR 25/02 A2995 RMK AO2 T02450024
KCNB 171915Z AUTO 22009KT 10SM CLR 24/02 A2995 RMK AO2 T02440016
KCNB 171855Z AUTO 22010G17KT 200V280 10SM CLR 24/01 A2997 RMK AO2 T02410013
KCNB 171834Z AUTO 21010G15KT 10SM CLR 24/02 A2997 RMK AO2 T02400016
KCNB 171815Z AUTO 22009KT 200V300 10SM CLR 24/02 A2998 RMK AO2 T02400022
KCNB 171755Z AUTO 22008KT 10SM CLR 23/03 A2999 RMK AO2 T02310026 10231 20077
KCNB 171734Z AUTO 27007KT 200V320 10SM CLR 23/02 A3000 RMK AO2 T02270018
KCNB 171715Z AUTO 31007KT 210V320 10SM CLR 22/02 A3000 RMK AO2 T02220024
KCNB 171655Z AUTO 30009KT 230V320 10SM CLR 22/02 A3001 RMK AO2 T02180024
KCNB 171634Z AUTO 25008KT 200V320 10SM CLR 21/03 A3001 RMK AO2 T02130033
KCNB 171615Z AUTO 23007KT 10SM CLR 20/04 A3001 RMK AO2 T02040039
KCNB 171554Z AUTO 23006KT 10SM CLR 20/04 A3001 RMK AO2 T01960042
KCNB 171535Z AUTO 22005KT 10SM CLR 19/04 A3002 RMK AO2 T01900044
KCNB 171515Z AUTO 22007KT 10SM CLR 18/04 A3001 RMK AO2 T01760042
KCNB 171454Z AUTO 22006KT 10SM CLR 16/04 A3001 RMK AO2 T01610040
KCNB 171435Z AUTO 22006KT 10SM CLR 15/04 A3002 RMK AO2 T01500043
KCNB 171415Z AUTO 21005KT 10SM CLR 14/04 A3001 RMK AO2 T01380037
KCNB 171354Z AUTO 21006KT 200V280 10SM CLR 13/03 A3001 RMK AO2 T01270034
KCNB 171335Z AUTO 21008KT 10SM CLR 11/03 A3001 RMK AO2 T01080034
KCNB 171314Z AUTO 22003KT 10SM CLR 09/03 A3001 RMK AO2 T00880031
KCNB 171254Z AUTO 24003KT 10SM CLR 08/03 A3000 RMK AO2 T00830029
KCNB 171235Z AUTO 00000KT 10SM CLR 09/03 A3000 RMK AO2 T00860030
KCNB 171214Z AUTO 00000KT 10SM CLR 09/03 A3001 RMK AO2 T00850033
KCNB 171154Z AUTO 23003KT 10SM CLR 09/04 A3001 RMK AO2 T00860035 10135 20085
KCNB 171135Z AUTO 22005KT 10SM CLR 09/04 A3001 RMK AO2 T00920036
KCNB 171114Z AUTO 22004KT 10SM CLR 10/04 A3001 RMK AO2 T00990038
KCNB 171054Z AUTO 21006KT 10SM CLR 10/04 A3000 RMK AO2 T01010040
KCNB 171035Z AUTO 22008KT 10SM CLR 10/04 A3000 RMK AO2 T01010040
KCNB 171014Z AUTO 23006KT 10SM CLR 10/04 A3000 RMK AO2 T00950041
KCNB 170955Z AUTO 22005KT 10SM CLR 09/04 A3000 RMK AO2 T00920041
KCNB 170935Z AUTO 21006KT 10SM CLR 10/04 A2999 RMK AO2 T00970042
KCNB 170914Z AUTO 22006KT 10SM CLR 10/04 A2999 RMK AO2 T01010043
KCNB 170855Z AUTO 22008KT 10SM CLR 10/04 A2999 RMK AO2 T01020044
KCNB 170834Z AUTO 21004KT 10SM CLR 10/04 A3000 RMK AO2 T00960042
KCNB 170814Z AUTO 24003KT 10SM CLR 10/05 A3000 RMK AO2 T01030045
KCNB 170755Z AUTO 23005KT 10SM CLR 11/05 A3000 RMK AO2 T01050045
KCNB 170734Z AUTO 28004KT 10SM CLR 11/05 A3000 RMK AO2 T01140045
KCNB 170715Z AUTO 25007KT 210V310 10SM CLR 12/05 A2999 RMK AO2 T01210047
KCNB 170655Z AUTO 24009KT 200V310 10SM CLR 13/05 A2999 RMK AO2 T01260047
KCNB 170634Z AUTO 21008KT 10SM CLR 13/05 A2999 RMK AO2 T01260048
KCNB 170615Z AUTO 22008KT 10SM CLR 13/05 A2998 RMK AO2 T01340047
KCNB 170555Z AUTO 22008KT 200V270 10SM CLR 14/05 A2998 RMK AO2 T01350048 10181 20132 402200045
KCNB 170534Z AUTO 21008KT 10SM CLR 14/05 A2998 RMK AO2 T01350049
KCNB 170515Z AUTO 22009KT 10SM CLR 14/05 A2997 RMK AO2 T01370048
KCNB 170455Z AUTO 22008KT 200V270 10SM CLR 13/05 A2998 RMK AO2 T01340050
KCNB 170434Z AUTO 21009KT 200V270 10SM CLR 14/05 A2997 RMK AO2 T01350051
KCNB 170415Z AUTO 21008KT 10SM CLR 14/05 A2997 RMK AO2 T01350052
KCNB 170355Z AUTO 21009KT 10SM CLR 14/05 A2998 RMK AO2 T01380053
KCNB 170334Z AUTO 22007G14KT 200V280 10SM CLR 14/05 A2998 RMK AO2 T01410053
KCNB 170315Z AUTO 22007KT 10SM CLR 14/05 A2998 RMK AO2 T01390054
KCNB 170254Z AUTO 22005KT 10SM CLR 14/05 A2998 RMK AO2 T01350054
KCNB 170235Z AUTO 22005KT 10SM CLR 14/05 A2998 RMK AO2 T01380052
KCNB 170215Z AUTO 23005KT 10SM CLR 14/05 A2998 RMK AO2 T01380053
KCNB 170154Z AUTO 25007KT 210V300 10SM CLR 14/06 A2997 RMK AO2 T01430055
KCNB 170135Z AUTO 21009KT 10SM CLR 15/05 A2997 RMK AO2 T01460053
KCNB 170115Z AUTO 22006KT 10SM CLR 15/05 A2997 RMK AO2 T01480053
KCNB 170054Z AUTO 23005KT 10SM CLR 15/05 A2997 RMK AO2 T01490046
KCNB 170035Z AUTO 00000KT 10SM CLR 15/04 A2998 RMK AO2 T01510042
KCNB 170015Z AUTO 00000KT 10SM CLR 18/04 A2997 RMK AO2 T01760035
KCNB 162354Z AUTO 24004KT 10SM CLR 18/04 A2997 RMK AO2 T01790035 10220 20178
KCNB 162335Z AUTO 23004KT 10SM CLR 19/03 A2997 RMK AO2 T01860034
KCNB 162315Z AUTO 22005KT 10SM CLR 20/03 A2997 RMK AO2 T01990030
KCNB 162254Z AUTO 23006KT 10SM CLR 21/03 A2997 RMK AO2 T02070033
KCNB 162235Z AUTO 24006KT 10SM CLR 21/03 A2997 RMK AO2 T02070030
KCNB 162214Z AUTO 23006KT 10SM CLR 21/03 A2998 RMK AO2 T02090026
KCNB 162154Z AUTO 23006KT 10SM CLR 21/03 A2999 RMK AO2 T02110028
KCNB 162135Z AUTO 23008G15KT 10SM CLR 22/02 A2999 RMK AO2 T02160024
KCNB 162114Z AUTO 24010G18KT 10SM CLR 21/02 A2999 RMK AO2 T02130022
KCNB 162055Z AUTO 24012G19KT 10SM CLR 21/02 A2998 RMK AO2 T02110020
KCNB 162035Z AUTO 24010G18KT 10SM CLR 21/02 A2999 RMK AO2 T02120018
KCNB 162014Z AUTO 24015G22KT 10SM CLR 22/01 A2999 RMK AO2 T02150013
KCNB 161955Z AUTO 24017G25KT 10SM CLR 21/01 A2999 RMK AO2 T02130007
KCNB 161935Z AUTO 24016G23KT 10SM CLR 21/00 A3001 RMK AO2 T02110004
KCNB 161914Z AUTO 24014G19KT 10SM CLR 21/01 A3002 RMK AO2 T02100014
KCNB 161855Z AUTO 24014G22KT 200V260 10SM CLR 20/00 A3003 RMK AO2 T02040004
KCNB 161834Z AUTO 24014G20KT 200V260 10SM CLR 20/01 A3005 RMK AO2 T02010014
KCNB 161814Z AUTO 23010G18KT 10SM CLR 20/02 A3007 RMK AO2 T01960016
KCNB 161755Z AUTO 24013G20KT 10SM CLR 19/01 A3008 RMK AO2 T01900012 10190 20053
KCNB 161734Z AUTO 22009G15KT 170V250 10SM CLR 18/02 A3010 RMK AO2 T01830022
KCNB 161714Z AUTO 21009G16KT 180V250 10SM CLR 17/02 A3012 RMK AO2 T01730018
KCNB 161655Z AUTO 24009G17KT 10SM CLR 17/02 A3013 RMK AO2 T01660019
KCNB 161634Z AUTO 24013G19KT 10SM CLR 16/02 A3014 RMK AO2 T01600017
KCNB 161615Z AUTO 25013G16KT 10SM CLR 15/02 A3015 RMK AO2 T01510020
KCNB 161555Z AUTO 24012G16KT 10SM CLR 14/02 A3016 RMK AO2 T01420017